Time;durP1;ratioP1;P1;durP2;ratioP2;P2;SDS_P1;SDS_P2;PMS_P1;PMS_P2;Temp;Humidity;BMP_temperature;BMP_pressure;BME280_temperature;BME280_humidity;BME280_pressure;Samples;Min_cycle;Max_cycle;Signal;HPM_P1;HPM_P2
2021/03/12 00:02:09;;;;;;;;;;;19.60;53.50;;;;;;5036176;28;1318;-69
2021/03/12 00:04:34;;;;;;;;;;;19.60;53.50;;;;;;5035864;28;1902;-69
2021/03/12 00:07:00;;;;;;;;;;;19.60;53.50;;;;;;5051284;28;1275;-69
2021/03/12 00:09:25;;;;;;;;;;;19.60;53.50;;;;;;5043685;28;1265;-69
2021/03/12 00:11:52;;;;;;;;;;;19.60;53.50;;;;;;5029556;28;1351;-69
2021/03/12 00:14:18;;;;;;;;;;;19.60;53.60;;;;;;5035865;28;1343;-69
2021/03/12 00:16:43;;;;;;;;;;;19.60;53.80;;;;;;5038506;28;1280;-69
2021/03/12 00:19:09;;;;;;;;;;;19.60;53.60;;;;;;5055241;28;1302;-69
2021/03/12 00:21:34;;;;;;;;;;;19.60;53.60;;;;;;5055538;28;1300;-69
2021/03/12 00:23:59;;;;;;;;;;;19.50;53.60;;;;;;5055389;28;1971;-69
2021/03/12 00:26:25;;;;;;;;;;;19.50;53.60;;;;;;5055187;28;1344;-69
2021/03/12 00:28:50;;;;;;;;;;;19.50;53.60;;;;;;5055051;28;1281;-69
2021/03/12 00:31:16;;;;;;;;;;;19.50;53.60;;;;;;5043697;28;1256;-69
2021/03/12 00:33:41;;;;;;;;;;;19.50;53.70;;;;;;5050622;28;1354;-69
2021/03/12 00:36:07;;;;;;;;;;;19.50;53.70;;;;;;5035471;28;1060;-69
2021/03/12 00:38:32;;;;;;;;;;;19.50;53.70;;;;;;5034693;28;1492;-69
2021/03/12 00:41:01;;;;;;;;;;;19.50;53.70;;;;;;5035201;28;1276;-69
2021/03/12 00:43:28;;;;;;;;;;;19.50;53.70;;;;;;5034987;28;1894;-70
2021/03/12 00:45:54;;;;;;;;;;;19.50;53.70;;;;;;5050650;28;1175;-70
2021/03/12 00:48:20;;;;;;;;;;;19.40;53.70;;;;;;5034614;28;1337;-69
2021/03/12 00:50:45;;;;;;;;;;;19.50;53.80;;;;;;5049676;28;1119;-70
2021/03/12 00:53:11;;;;;;;;;;;19.50;54.40;;;;;;5034977;28;1263;-69
2021/03/12 00:55:36;;;;;;;;;;;19.50;53.80;;;;;;5034770;28;1283;-70
2021/03/12 00:58:02;;;;;;;;;;;19.50;53.80;;;;;;5033510;28;2046;-70
2021/03/12 01:00:28;;;;;;;;;;;19.50;53.80;;;;;;5035192;28;1339;-70
2021/03/12 01:02:53;;;;;;;;;;;19.50;53.80;;;;;;5050403;28;1956;-70
2021/03/12 01:05:19;;;;;;;;;;;19.50;53.80;;;;;;5034579;28;1247;-69
2021/03/12 01:07:45;;;;;;;;;;;19.40;53.80;;;;;;5034540;28;1351;-69
2021/03/12 01:10:10;;;;;;;;;;;19.40;53.80;;;;;;5034544;28;1309;-72
2021/03/12 01:12:36;;;;;;;;;;;19.40;53.80;;;;;;5034761;28;1366;-71
2021/03/12 01:15:03;;;;;;;;;;;19.40;53.90;;;;;;5034350;28;1278;-70
2021/03/12 01:17:28;;;;;;;;;;;19.40;53.90;;;;;;5033173;28;1310;-71
2021/03/12 01:19:53;;;;;;;;;;;19.40;53.90;;;;;;5034757;28;1248;-70
2021/03/12 01:22:19;;;;;;;;;;;19.40;53.90;;;;;;5034505;28;1902;-71
2021/03/12 01:24:44;;;;;;;;;;;19.40;53.90;;;;;;5034199;28;1264;-70
2021/03/12 01:27:10;;;;;;;;;;;19.40;53.90;;;;;;5034066;28;1358;-69
2021/03/12 01:29:35;;;;;;;;;;;19.40;53.90;;;;;;5034430;28;1364;-70
2021/03/12 01:32:01;;;;;;;;;;;19.40;53.90;;;;;;5034161;28;1316;-70
2021/03/12 01:34:27;;;;;;;;;;;19.40;53.90;;;;;;5034607;28;1316;-70
2021/03/12 01:36:53;;;;;;;;;;;19.40;53.90;;;;;;5034475;28;1167;-70
2021/03/12 01:39:19;;;;;;;;;;;19.40;53.90;;;;;;5034775;28;1313;-71
2021/03/12 01:41:44;;;;;;;;;;;19.40;53.90;;;;;;5049588;28;1320;-70
2021/03/12 01:44:10;;;;;;;;;;;19.40;53.90;;;;;;5034419;28;1948;-70
2021/03/12 01:46:35;;;;;;;;;;;19.30;53.90;;;;;;5033857;28;1315;-71
2021/03/12 01:49:00;;;;;;;;;;;19.30;53.90;;;;;;5034114;28;1337;-70
2021/03/12 01:51:26;;;;;;;;;;;19.30;53.90;;;;;;5049370;28;1588;-70
2021/03/12 01:53:51;;;;;;;;;;;19.30;54.00;;;;;;5049753;28;1338;-70
2021/03/12 01:56:17;;;;;;;;;;;19.40;54.00;;;;;;5052953;28;1662;-70
2021/03/12 01:58:42;;;;;;;;;;;19.30;54.00;;;;;;5048727;28;1372;-70
2021/03/12 02:01:07;;;;;;;;;;;19.30;54.00;;;;;;5033665;28;1394;-70
2021/03/12 02:03:33;;;;;;;;;;;19.30;54.00;;;;;;5033334;28;1944;-70
2021/03/12 02:05:58;;;;;;;;;;;19.30;54.00;;;;;;5049149;28;1203;-70
2021/03/12 02:08:24;;;;;;;;;;;19.30;54.00;;;;;;5032850;28;1339;-70
2021/03/12 02:10:49;;;;;;;;;;;19.30;54.00;;;;;;5030389;28;1261;-71
2021/03/12 02:13:15;;;;;;;;;;;19.30;54.00;;;;;;5036664;28;1423;-71
2021/03/12 02:15:59;;;;;;;;;;;19.30;54.10;;;;;;5048127;28;1235;-70
2021/03/12 02:18:30;;;;;;;;;;;19.30;54.10;;;;;;5034159;28;1293;-70
2021/03/12 02:21:06;;;;;;;;;;;19.30;54.10;;;;;;5053250;28;1274;-70
2021/03/12 02:23:46;;;;;;;;;;;19.30;54.10;;;;;;5051910;28;1971;-70
2021/03/12 02:26:14;;;;;;;;;;;19.30;54.10;;;;;;5052147;28;1302;-70
2021/03/12 02:28:40;;;;;;;;;;;19.30;54.10;;;;;;5034679;28;1340;-70
2021/03/12 02:31:08;;;;;;;;;;;19.30;54.10;;;;;;5041758;28;1307;-71
2021/03/12 02:33:33;;;;;;;;;;;19.30;54.10;;;;;;5032080;28;1331;-71
2021/03/12 02:35:59;;;;;;;;;;;19.30;54.10;;;;;;5048394;28;1331;-71
2021/03/12 02:38:25;;;;;;;;;;;19.30;54.10;;;;;;5048203;28;1411;-70
2021/03/12 02:40:51;;;;;;;;;;;19.30;54.10;;;;;;5048208;28;1369;-71
2021/03/12 02:43:16;;;;;;;;;;;19.30;54.10;;;;;;5048324;28;1906;-71
2021/03/12 02:45:42;;;;;;;;;;;19.20;54.10;;;;;;5032875;28;1333;-71
2021/03/12 02:48:07;;;;;;;;;;;19.30;54.10;;;;;;5031411;28;1598;-70
2021/03/12 02:50:33;;;;;;;;;;;19.30;54.00;;;;;;5048197;28;1326;-71
2021/03/12 02:52:58;;;;;;;;;;;19.30;54.00;;;;;;5048462;28;1336;-71
2021/03/12 02:55:23;;;;;;;;;;;19.30;54.00;;;;;;5048118;28;1628;-70
2021/03/12 02:57:49;;;;;;;;;;;19.30;53.90;;;;;;5032596;28;1349;-69
2021/03/12 03:00:14;;;;;;;;;;;19.30;53.90;;;;;;5032899;28;1076;-73
2021/03/12 03:02:40;;;;;;;;;;;19.30;53.90;;;;;;5032832;28;1894;-70
2021/03/12 03:05:06;;;;;;;;;;;19.30;53.90;;;;;;5048315;28;1048;-70
2021/03/12 03:07:31;;;;;;;;;;;19.40;53.90;;;;;;5031325;28;1353;-70
2021/03/12 03:09:57;;;;;;;;;;;19.40;53.90;;;;;;5043890;22;2033;-74
2021/03/12 03:12:23;;;;;;;;;;;19.30;53.80;;;;;;5047070;28;1300;-73
2021/03/12 03:14:49;;;;;;;;;;;19.40;53.90;;;;;;5034989;28;1076;-73
2021/03/12 03:17:14;;;;;;;;;;;19.40;53.90;;;;;;5049250;28;1131;-74
2021/03/12 03:19:40;;;;;;;;;;;19.40;53.80;;;;;;5035143;28;1367;-73
2021/03/12 03:22:05;;;;;;;;;;;19.40;53.90;;;;;;5036606;28;1116;-73
2021/03/12 03:24:31;;;;;;;;;;;19.40;53.80;;;;;;5035814;28;1902;-75
2021/03/12 03:26:56;;;;;;;;;;;19.40;53.80;;;;;;5036235;28;1335;-75
2021/03/12 03:29:22;;;;;;;;;;;19.40;53.80;;;;;;5035479;28;1354;-75
2021/03/12 03:31:47;;;;;;;;;;;19.40;53.80;;;;;;5023735;28;1116;-75
2021/03/12 03:34:12;;;;;;;;;;;19.40;53.80;;;;;;5034789;28;1250;-75
2021/03/12 03:36:38;;;;;;;;;;;19.40;53.70;;;;;;5036037;28;1315;-74
2021/03/12 03:39:06;;;;;;;;;;;19.40;53.60;;;;;;5035358;28;1290;-74
2021/03/12 03:41:31;;;;;;;;;;;19.50;53.60;;;;;;5034540;28;1139;-74
2021/03/12 03:43:57;;;;;;;;;;;19.50;53.50;;;;;;5017810;28;1890;-73
2021/03/12 03:46:22;;;;;;;;;;;19.60;53.50;;;;;;5021075;28;1123;-72
2021/03/12 03:48:47;;;;;;;;;;;19.70;53.30;;;;;;5033172;28;1322;-71
2021/03/12 03:51:13;;;;;;;;;;;19.80;53.10;;;;;;5034312;28;1276;-73
2021/03/12 03:53:39;;;;;;;;;;;19.90;52.90;;;;;;5034253;28;1084;-73
2021/03/12 03:56:05;;;;;;;;;;;20.00;52.70;;;;;;5034684;28;1301;-72
2021/03/12 03:58:31;;;;;;;;;;;20.10;52.50;;;;;;5034943;28;1083;-74
2021/03/12 04:00:56;;;;;;;;;;;20.20;52.30;;;;;;5033784;28;1264;-74
2021/03/12 04:03:22;;;;;;;;;;;20.30;52.10;;;;;;5034223;28;1911;-73
2021/03/12 04:05:48;;;;;;;;;;;20.40;51.90;;;;;;5034023;28;1305;-73
2021/03/12 04:08:13;;;;;;;;;;;20.40;51.70;;;;;;5034018;28;1139;-73
2021/03/12 04:10:39;;;;;;;;;;;20.50;51.50;;;;;;5035655;28;1280;-73
2021/03/12 04:13:04;;;;;;;;;;;20.60;51.40;;;;;;5051360;28;1127;-73
2021/03/12 04:15:30;;;;;;;;;;;20.60;51.30;;;;;;5049719;28;1104;-73
2021/03/12 04:17:55;;;;;;;;;;;20.70;51.20;;;;;;5033515;28;1115;-73
2021/03/12 04:20:20;;;;;;;;;;;20.70;51.10;;;;;;5033926;28;1387;-72
2021/03/12 04:22:46;;;;;;;;;;;20.80;51.00;;;;;;5033533;28;1894;-73
2021/03/12 04:25:11;;;;;;;;;;;20.80;50.90;;;;;;5016215;28;1369;-70
2021/03/12 04:27:37;;;;;;;;;;;20.90;50.80;;;;;;5033458;28;1297;-71
2021/03/12 04:30:03;;;;;;;;;;;20.90;50.80;;;;;;5032358;28;1294;-70
2021/03/12 04:32:28;;;;;;;;;;;20.90;50.70;;;;;;5040035;28;1374;-70
2021/03/12 04:34:54;;;;;;;;;;;21.00;50.70;;;;;;5035086;28;1076;-71
2021/03/12 04:37:19;;;;;;;;;;;21.00;50.60;;;;;;5049791;28;1274;-70
2021/03/12 04:39:45;;;;;;;;;;;21.00;50.50;;;;;;5034390;28;1248;-70
2021/03/12 04:42:10;;;;;;;;;;;21.10;50.60;;;;;;5033460;28;1084;-72
2021/03/12 04:44:36;;;;;;;;;;;21.10;50.50;;;;;;5049956;28;1894;-71
2021/03/12 04:47:02;;;;;;;;;;;21.10;50.40;;;;;;5049193;28;1337;-72
2021/03/12 04:49:27;;;;;;;;;;;21.10;50.40;;;;;;5033217;28;1287;-71
2021/03/12 04:51:53;;;;;;;;;;;21.20;50.40;;;;;;5050305;28;1409;-71
2021/03/12 04:54:18;;;;;;;;;;;21.20;50.40;;;;;;5050127;28;1164;-70
2021/03/12 04:56:43;;;;;;;;;;;21.20;50.30;;;;;;5033445;28;1159;-72
2021/03/12 04:59:09;;;;;;;;;;;21.20;50.30;;;;;;5033749;28;1367;-71
2021/03/12 05:01:35;;;;;;;;;;;21.20;50.20;;;;;;5050091;28;1282;-70
2021/03/12 05:04:04;;;;;;;;;;;21.30;50.20;;;;;;5049682;28;1961;-71
2021/03/12 05:06:30;;;;;;;;;;;21.30;50.30;;;;;;5032824;28;1195;-71
2021/03/12 05:08:55;;;;;;;;;;;21.30;50.20;;;;;;5048780;28;1104;-72
2021/03/12 05:11:21;;;;;;;;;;;21.30;50.20;;;;;;5043428;28;1278;-71
2021/03/12 05:13:46;;;;;;;;;;;21.30;50.20;;;;;;5032441;28;1354;-71
2021/03/12 05:16:12;;;;;;;;;;;21.30;50.10;;;;;;5049174;28;1257;-71
2021/03/12 05:18:37;;;;;;;;;;;21.30;50.10;;;;;;5031900;28;1009;-71
2021/03/12 05:21:02;;;;;;;;;;;21.30;50.10;;;;;;5034221;28;1287;-71
2021/03/12 05:23:28;;;;;;;;;;;21.40;50.20;;;;;;5033514;28;1898;-72
2021/03/12 05:25:53;;;;;;;;;;;21.40;50.20;;;;;;5034091;28;1096;-71
2021/03/12 05:28:19;;;;;;;;;;;21.40;50.10;;;;;;5032931;28;1374;-71
2021/03/12 05:30:44;;;;;;;;;;;21.40;50.10;;;;;;5025294;28;1320;-71
2021/03/12 05:33:09;;;;;;;;;;;21.40;50.10;;;;;;5028774;28;1218;-72
2021/03/12 05:35:35;;;;;;;;;;;21.40;50.10;;;;;;5031946;28;1213;-71
2021/03/12 05:38:00;;;;;;;;;;;21.40;50.10;;;;;;5020235;28;1167;-72
2021/03/12 05:40:26;;;;;;;;;;;21.40;50.10;;;;;;5048731;28;1352;-71
2021/03/12 05:42:51;;;;;;;;;;;21.40;50.10;;;;;;5033596;28;1898;-71
2021/03/12 05:45:17;;;;;;;;;;;21.40;50.10;;;;;;5032835;28;1192;-71
2021/03/12 05:47:43;;;;;;;;;;;21.40;50.10;;;;;;5048454;28;1172;-71
2021/03/12 05:50:08;;;;;;;;;;;21.50;50.10;;;;;;5033331;28;1228;-71
2021/03/12 05:52:34;;;;;;;;;;;21.40;50.10;;;;;;5032188;28;1269;-73
2021/03/12 05:54:59;;;;;;;;;;;21.40;50.10;;;;;;5031508;28;1096;-71
2021/03/12 05:57:25;;;;;;;;;;;21.40;50.20;;;;;;5032684;28;1147;-72
2021/03/12 05:59:50;;;;;;;;;;;21.40;50.50;;;;;;5031732;28;1264;-71
2021/03/12 06:02:16;;;;;;;;;;;21.40;50.30;;;;;;5032037;28;1139;-71
2021/03/12 06:04:44;;;;;;;;;;;21.40;50.30;;;;;;5033047;28;1898;-72
2021/03/12 06:07:13;;;;;;;;;;;21.40;50.30;;;;;;5033065;28;1127;-72
2021/03/12 06:09:38;;;;;;;;;;;21.40;50.30;;;;;;5031965;28;1288;-71
2021/03/12 06:12:04;;;;;;;;;;;21.40;50.40;;;;;;5031880;28;1104;-71
2021/03/12 06:14:49;;;;;;;;;;;21.30;50.40;;;;;;5033218;28;937;-74
2021/03/12 06:17:53;;;;;;;;;;;21.40;50.50;;;;;;5018962;28;1315;-71
2021/03/12 06:20:18;;;;;;;;;;;21.30;50.50;;;;;;4972049;28;1376;-71
2021/03/12 06:22:53;;;;;;;;;;;21.30;50.50;;;;;;4971292;28;1902;-71
2021/03/12 06:25:19;;;;;;;;;;;21.30;50.60;;;;;;4993526;28;1393;-71
2021/03/12 06:27:46;;;;;;;;;;;21.20;50.60;;;;;;5031256;28;1049;-71
2021/03/12 06:30:12;;;;;;;;;;;21.20;50.70;;;;;;5030035;28;1375;-71
2021/03/12 06:32:41;;;;;;;;;;;21.20;50.70;;;;;;5039471;28;1195;-71
2021/03/12 06:35:07;;;;;;;;;;;21.20;50.80;;;;;;5017768;28;1214;-71
2021/03/12 06:37:35;;;;;;;;;;;21.20;50.80;;;;;;5031777;28;1076;-71
2021/03/12 06:40:10;;;;;;;;;;;21.20;50.90;;;;;;5032789;28;1355;-71
2021/03/12 06:42:35;;;;;;;;;;;21.10;50.90;;;;;;5032640;28;1947;-71
2021/03/12 06:45:01;;;;;;;;;;;21.10;50.90;;;;;;5032229;28;1048;-71
2021/03/12 06:47:27;;;;;;;;;;;21.10;51.00;;;;;;5030027;28;1215;-71
2021/03/12 06:49:56;;;;;;;;;;;21.10;51.00;;;;;;5030977;28;1268;-70
2021/03/12 06:52:33;;;;;;;;;;;21.10;51.10;;;;;;5032652;28;1307;-73
2021/03/12 06:54:59;;;;;;;;;;;21.00;51.10;;;;;;5032175;28;1084;-73
2021/03/12 06:57:24;;;;;;;;;;;21.00;51.10;;;;;;5030682;28;1246;-73
2021/03/12 06:59:59;;;;;;;;;;;21.00;51.20;;;;;;5030770;28;1280;-73
2021/03/12 07:02:31;;;;;;;;;;;21.00;51.20;;;;;;5031312;28;1160;-73
2021/03/12 07:04:57;;;;;;;;;;;21.00;51.30;;;;;;5032157;28;1307;-73
2021/03/12 07:07:32;;;;;;;;;;;20.90;51.30;;;;;;5031253;28;1285;-73
2021/03/12 07:09:57;;;;;;;;;;;20.90;51.30;;;;;;5030925;28;1280;-73
2021/03/12 07:12:27;;;;;;;;;;;20.90;51.40;;;;;;5031275;28;1354;-73
2021/03/12 07:14:52;;;;;;;;;;;20.90;51.40;;;;;;5047277;28;1348;-73
2021/03/12 07:17:18;;;;;;;;;;;20.90;51.40;;;;;;5046715;28;1127;-71
2021/03/12 07:19:44;;;;;;;;;;;20.90;51.50;;;;;;5029834;28;2141;-74
2021/03/12 07:22:10;;;;;;;;;;;20.80;51.50;;;;;;5030704;28;1013;-73
2021/03/12 07:24:35;;;;;;;;;;;20.80;51.50;;;;;;5015646;28;1910;-73
2021/03/12 07:27:01;;;;;;;;;;;20.80;51.60;;;;;;5030404;28;1361;-72
2021/03/12 07:29:30;;;;;;;;;;;20.80;51.60;;;;;;5030575;28;1264;-73
2021/03/12 07:31:55;;;;;;;;;;;20.80;51.70;;;;;;5019519;28;1120;-69
2021/03/12 07:34:25;;;;;;;;;;;20.80;51.70;;;;;;5013702;28;1079;-69
2021/03/12 07:36:54;;;;;;;;;;;20.70;51.70;;;;;;5030086;28;1303;-71
2021/03/12 07:39:26;;;;;;;;;;;20.70;51.70;;;;;;5029608;28;1280;-71
2021/03/12 07:41:51;;;;;;;;;;;20.70;51.80;;;;;;5017195;28;1399;-70
2021/03/12 07:44:17;;;;;;;;;;;20.70;51.90;;;;;;5046531;28;1933;-70
2021/03/12 07:46:49;;;;;;;;;;;20.70;51.90;;;;;;5046458;28;1319;-70
2021/03/12 07:49:30;;;;;;;;;;;20.70;51.90;;;;;;5044737;28;1301;-71
2021/03/12 07:51:59;;;;;;;;;;;20.60;51.90;;;;;;5031266;28;1356;-70
2021/03/12 07:54:37;;;;;;;;;;;20.60;52.00;;;;;;5029814;28;1296;-70
2021/03/12 07:57:03;;;;;;;;;;;20.60;52.00;;;;;;5045744;28;1348;-72
2021/03/12 07:59:46;;;;;;;;;;;20.60;52.10;;;;;;5032110;28;1367;-72
2021/03/12 08:02:15;;;;;;;;;;;20.60;52.00;;;;;;5038608;28;1256;-72
2021/03/12 08:04:41;;;;;;;;;;;20.60;52.10;;;;;;5039450;28;1906;-71
2021/03/12 08:07:15;;;;;;;;;;;20.60;52.10;;;;;;5038681;28;1330;-71
2021/03/12 08:09:40;;;;;;;;;;;20.50;52.10;;;;;;5035557;28;1323;-71
2021/03/12 08:12:06;;;;;;;;;;;20.50;52.20;;;;;;5038847;28;1088;-71
2021/03/12 08:14:32;;;;;;;;;;;20.50;52.20;;;;;;5035707;28;1048;-71
2021/03/12 08:16:58;;;;;;;;;;;20.50;52.20;;;;;;5050401;28;1159;-71
2021/03/12 08:19:33;;;;;;;;;;;20.50;52.20;;;;;;5049822;28;1366;-71
2021/03/12 08:21:59;;;;;;;;;;;20.50;52.20;;;;;;5050193;28;1370;-71
2021/03/12 08:24:43;;;;;;;;;;;20.40;52.30;;;;;;5034968;28;1902;-71
2021/03/12 08:27:09;;;;;;;;;;;20.50;52.30;;;;;;5034670;28;1407;-71
2021/03/12 08:29:34;;;;;;;;;;;20.40;52.30;;;;;;5032973;28;1406;-71
2021/03/12 08:32:00;;;;;;;;;;;20.50;52.40;;;;;;5023509;28;1285;-71
2021/03/12 08:34:34;;;;;;;;;;;20.50;52.40;;;;;;5034894;28;1335;-71
2021/03/12 08:37:19;;;;;;;;;;;20.40;52.40;;;;;;5021429;28;1465;-72
2021/03/12 08:39:45;;;;;;;;;;;20.40;52.40;;;;;;5031481;28;1263;-71
2021/03/12 08:42:12;;;;;;;;;;;20.40;52.50;;;;;;5024373;28;1147;-71
2021/03/12 08:44:40;;;;;;;;;;;20.40;52.50;;;;;;5050117;28;1890;-71
2021/03/12 08:47:06;;;;;;;;;;;20.40;52.50;;;;;;5034199;28;1275;-72
2021/03/12 08:49:31;;;;;;;;;;;20.40;52.50;;;;;;5049415;28;1355;-71
2021/03/12 08:51:56;;;;;;;;;;;20.40;52.60;;;;;;5049956;28;1217;-71
2021/03/12 08:54:28;;;;;;;;;;;20.30;52.50;;;;;;5034820;28;1352;-71
2021/03/12 08:56:54;;;;;;;;;;;20.30;52.60;;;;;;5049653;28;1310;-72
2021/03/12 08:59:25;;;;;;;;;;;20.30;52.60;;;;;;5032474;28;1504;-71
2021/03/12 09:01:57;;;;;;;;;;;20.30;52.60;;;;;;5049800;28;1294;-71
2021/03/12 09:04:28;;;;;;;;;;;20.30;52.70;;;;;;5034272;28;1906;-71
2021/03/12 09:06:53;;;;;;;;;;;20.30;52.70;;;;;;5034296;28;1099;-71
2021/03/12 09:09:19;;;;;;;;;;;20.30;52.70;;;;;;5033344;28;1252;-71
2021/03/12 09:11:44;;;;;;;;;;;20.30;52.70;;;;;;5064630;22;1903;-66
2021/03/12 09:14:10;;;;;;;;;;;20.30;52.80;;;;;;5053086;28;1423;-66
2021/03/12 09:16:40;;;;;;;;;;;20.30;52.80;;;;;;5055019;28;1162;-66
2021/03/12 09:19:10;;;;;;;;;;;20.20;52.70;;;;;;5053252;28;2095;-65
2021/03/12 09:21:36;;;;;;;;;;;20.20;52.80;;;;;;5052780;28;1305;-66
2021/03/12 09:24:01;;;;;;;;;;;20.20;52.80;;;;;;5054313;28;1979;-66
2021/03/12 09:26:27;;;;;;;;;;;20.20;52.80;;;;;;5054304;28;1083;-66
2021/03/12 09:28:53;;;;;;;;;;;20.20;52.80;;;;;;5052855;28;1313;-66
2021/03/12 09:31:19;;;;;;;;;;;20.20;52.90;;;;;;5050588;28;2102;-67
2021/03/12 09:33:50;;;;;;;;;;;20.20;52.90;;;;;;5040141;28;1063;-67
2021/03/12 09:36:22;;;;;;;;;;;20.20;52.90;;;;;;5044390;28;1224;-63
2021/03/12 09:38:47;;;;;;;;;;;20.10;52.90;;;;;;5053795;28;1647;-64
2021/03/12 09:41:19;;;;;;;;;;;20.10;52.90;;;;;;5053433;28;1324;-64
2021/03/12 09:43:44;;;;;;;;;;;20.10;52.90;;;;;;5054048;28;1898;-63
2021/03/12 09:46:10;;;;;;;;;;;20.10;53.00;;;;;;5053871;28;1242;-63
2021/03/12 09:48:36;;;;;;;;;;;20.10;53.00;;;;;;5048300;28;1230;-64
2021/03/12 09:51:01;;;;;;;;;;;20.10;53.00;;;;;;5048897;28;1342;-65
2021/03/12 09:53:27;;;;;;;;;;;20.10;53.00;;;;;;5052654;28;1271;-63
2021/03/12 09:55:52;;;;;;;;;;;20.10;53.00;;;;;;5053680;28;1341;-64
2021/03/12 09:58:17;;;;;;;;;;;20.10;53.10;;;;;;5052401;28;1379;-65
2021/03/12 10:00:43;;;;;;;;;;;20.10;53.10;;;;;;5052156;28;1369;-63
2021/03/12 10:03:08;;;;;;;;;;;20.10;53.10;;;;;;5053520;28;1910;-63
2021/03/12 10:05:34;;;;;;;;;;;20.10;53.10;;;;;;5051789;28;1286;-64
2021/03/12 10:08:00;;;;;;;;;;;20.10;53.20;;;;;;5041242;28;1056;-66
2021/03/12 10:10:26;;;;;;;;;;;20.10;53.20;;;;;;5040032;28;1237;-66
2021/03/12 10:12:55;;;;;;;;;;;20.10;53.20;;;;;;5053438;28;1435;-66
2021/03/12 10:15:24;;;;;;;;;;;20.10;53.20;;;;;;5051707;28;1164;-66
2021/03/12 10:17:50;;;;;;;;;;;20.10;53.20;;;;;;5051754;28;1313;-66
2021/03/12 10:20:16;;;;;;;;;;;20.00;53.20;;;;;;5053057;28;1277;-66
2021/03/12 10:22:43;;;;;;;;;;;20.00;53.20;;;;;;5053189;28;1910;-66
2021/03/12 10:25:09;;;;;;;;;;;20.00;53.20;;;;;;5051595;28;1861;-66
2021/03/12 10:27:36;;;;;;;;;;;20.00;53.20;;;;;;5051188;28;1824;-68
2021/03/12 10:30:05;;;;;;;;;;;20.00;53.20;;;;;;5052701;28;1372;-65
2021/03/12 10:32:30;;;;;;;;;;;20.00;53.20;;;;;;5044601;28;1087;-65
2021/03/12 10:34:57;;;;;;;;;;;20.00;53.20;;;;;;5051760;28;1374;-65
2021/03/12 10:37:23;;;;;;;;;;;20.00;53.30;;;;;;5052674;28;1343;-65
2021/03/12 10:39:49;;;;;;;;;;;20.00;53.30;;;;;;5052908;28;1353;-65
2021/03/12 10:42:15;;;;;;;;;;;20.00;53.30;;;;;;5051849;28;1302;-66
2021/03/12 10:44:47;;;;;;;;;;;20.00;53.30;;;;;;5051598;28;1898;-65
2021/03/12 10:47:13;;;;;;;;;;;20.00;53.30;;;;;;5068044;28;1076;-65
2021/03/12 10:49:38;;;;;;;;;;;20.00;53.30;;;;;;5052687;28;1473;-65
2021/03/12 10:52:03;;;;;;;;;;;20.00;53.30;;;;;;5052898;28;1291;-67
2021/03/12 10:54:29;;;;;;;;;;;20.00;53.30;;;;;;5051457;28;1338;-65
2021/03/12 10:56:55;;;;;;;;;;;20.00;53.30;;;;;;5052959;28;1290;-65
2021/03/12 10:59:20;;;;;;;;;;;20.00;53.30;;;;;;5052642;28;1330;-65
2021/03/12 11:01:48;;;;;;;;;;;20.00;53.30;;;;;;5052311;28;1373;-67
2021/03/12 11:04:16;;;;;;;;;;;19.90;53.30;;;;;;5052490;28;1886;-65
2021/03/12 11:06:42;;;;;;;;;;;19.90;53.30;;;;;;5052707;28;1302;-65
2021/03/12 11:09:09;;;;;;;;;;;20.00;53.30;;;;;;5052168;28;1190;-65
2021/03/12 11:11:35;;;;;;;;;;;19.90;53.30;;;;;;5052876;28;1361;-65
2021/03/12 11:14:00;;;;;;;;;;;19.90;53.30;;;;;;5051378;28;1264;-65
2021/03/12 11:16:26;;;;;;;;;;;19.90;53.30;;;;;;5052325;28;1119;-65
2021/03/12 11:18:51;;;;;;;;;;;19.90;53.30;;;;;;5052206;28;1337;-65
2021/03/12 11:21:17;;;;;;;;;;;19.90;53.30;;;;;;5052513;28;1299;-65
2021/03/12 11:23:43;;;;;;;;;;;20.00;53.40;;;;;;5051371;28;1898;-65
2021/03/12 11:26:09;;;;;;;;;;;19.90;53.30;;;;;;5052401;28;1241;-67
2021/03/12 11:28:34;;;;;;;;;;;19.90;53.30;;;;;;5052275;28;1382;-66
2021/03/12 11:31:02;;;;;;;;;;;19.90;53.30;;;;;;5052024;28;1386;-65
2021/03/12 11:33:27;;;;;;;;;;;19.90;53.40;;;;;;5051492;28;1372;-66
2021/03/12 11:35:52;;;;;;;;;;;19.90;53.40;;;;;;5056286;28;1290;-65
2021/03/12 11:38:18;;;;;;;;;;;19.90;53.40;;;;;;5055042;28;1342;-65
2021/03/12 11:40:43;;;;;;;;;;;19.90;53.40;;;;;;5055133;28;1503;-66
2021/03/12 11:43:09;;;;;;;;;;;19.90;53.40;;;;;;5055007;28;1894;-65
2021/03/12 11:45:34;;;;;;;;;;;19.90;53.40;;;;;;5055937;28;1087;-65
2021/03/12 11:48:02;;;;;;;;;;;19.90;53.40;;;;;;5055951;28;1060;-65
2021/03/12 11:50:27;;;;;;;;;;;19.90;53.40;;;;;;5054842;28;1350;-67
2021/03/12 11:52:53;;;;;;;;;;;19.90;53.40;;;;;;5056215;28;1162;-66
2021/03/12 11:55:19;;;;;;;;;;;19.90;53.40;;;;;;5055941;28;1298;-66
2021/03/12 11:57:44;;;;;;;;;;;19.90;53.40;;;;;;5037840;28;1307;-66
2021/03/12 12:00:10;;;;;;;;;;;19.90;53.40;;;;;;5054469;28;1369;-66
2021/03/12 12:02:35;;;;;;;;;;;19.90;53.40;;;;;;5054588;28;1441;-66
2021/03/12 12:05:02;;;;;;;;;;;19.90;53.40;;;;;;5055756;28;1957;-66
2021/03/12 12:07:28;;;;;;;;;;;19.90;53.40;;;;;;5055459;28;1323;-66
2021/03/12 12:09:53;;;;;;;;;;;19.90;53.40;;;;;;5054402;28;1299;-66
2021/03/12 12:12:19;;;;;;;;;;;19.80;53.40;;;;;;5055698;28;1331;-66
2021/03/12 12:14:46;;;;;;;;;;;19.90;53.40;;;;;;5055717;28;1268;-66
2021/03/12 12:17:11;;;;;;;;;;;19.80;53.40;;;;;;5055545;28;1083;-66
2021/03/12 12:19:37;;;;;;;;;;;19.80;53.40;;;;;;5054769;28;1899;-67
2021/03/12 12:22:02;;;;;;;;;;;19.80;53.40;;;;;;5053372;28;1048;-66
2021/03/12 12:24:28;;;;;;;;;;;19.80;53.40;;;;;;5054114;28;1906;-68
2021/03/12 12:26:53;;;;;;;;;;;19.80;53.40;;;;;;5052464;28;1334;-68
2021/03/12 12:29:19;;;;;;;;;;;19.90;53.50;;;;;;5055030;28;1115;-69
2021/03/12 12:31:44;;;;;;;;;;;19.80;53.40;;;;;;5055032;28;1275;-69
2021/03/12 12:34:10;;;;;;;;;;;19.80;53.40;;;;;;5055383;28;1087;-68
2021/03/12 12:36:35;;;;;;;;;;;19.80;53.40;;;;;;5054010;28;1084;-67
2021/03/12 12:39:02;;;;;;;;;;;19.90;53.50;;;;;;5053743;28;1154;-68
2021/03/12 12:41:27;;;;;;;;;;;19.90;53.50;;;;;;5055167;28;1365;-65
2021/03/12 12:43:52;;;;;;;;;;;19.80;53.50;;;;;;5054869;28;1906;-65
2021/03/12 12:46:18;;;;;;;;;;;19.80;53.50;;;;;;5053919;28;1261;-67
2021/03/12 12:48:43;;;;;;;;;;;19.80;53.50;;;;;;5054673;28;1107;-62
2021/03/12 12:51:09;;;;;;;;;;;19.80;53.50;;;;;;5035279;28;1266;-69
2021/03/12 12:53:34;;;;;;;;;;;19.90;53.50;;;;;;5044341;28;1022;-67
2021/03/12 12:56:00;;;;;;;;;;;19.80;53.50;;;;;;5055154;28;1263;-64
2021/03/12 12:58:25;;;;;;;;;;;19.80;53.50;;;;;;5054015;28;966;-63
2021/03/12 13:00:51;;;;;;;;;;;19.80;53.50;;;;;;5053508;28;1339;-63
2021/03/12 13:03:16;;;;;;;;;;;19.80;53.40;;;;;;5054644;28;1901;-65
2021/03/12 13:05:41;;;;;;;;;;;19.80;53.40;;;;;;5054261;28;1397;-62
2021/03/12 13:08:07;;;;;;;;;;;19.90;53.40;;;;;;5054426;28;1661;-63
2021/03/12 13:10:33;;;;;;;;;;;19.90;53.30;;;;;;5054393;28;1266;-64
2021/03/12 13:12:59;;;;;;;;;;;20.00;53.20;;;;;;5054349;28;1035;-62
2021/03/12 13:15:24;;;;;;;;;;;20.10;53.10;;;;;;5054283;28;1309;-63
2021/03/12 13:17:50;;;;;;;;;;;20.20;53.00;;;;;;5054235;28;1322;-62
2021/03/12 13:20:19;;;;;;;;;;;20.30;53.30;;;;;;5054012;28;1286;-63
2021/03/12 13:22:47;;;;;;;;;;;20.40;52.60;;;;;;5054299;28;1906;-63
2021/03/12 13:25:16;;;;;;;;;;;20.40;52.30;;;;;;5054046;28;1277;-65
2021/03/12 13:27:42;;;;;;;;;;;20.50;52.20;;;;;;5053961;28;1294;-65
2021/03/12 13:30:07;;;;;;;;;;;20.50;52.00;;;;;;5052810;28;1369;-65
2021/03/12 13:32:33;;;;;;;;;;;20.60;51.90;;;;;;5053258;28;1262;-65
2021/03/12 13:34:58;;;;;;;;;;;20.60;51.80;;;;;;5054306;28;1128;-65
2021/03/12 13:37:24;;;;;;;;;;;20.70;51.70;;;;;;5053770;28;1087;-66
2021/03/12 13:39:49;;;;;;;;;;;20.70;51.60;;;;;;5052931;28;1448;-65
2021/03/12 13:42:15;;;;;;;;;;;20.80;51.60;;;;;;5053678;28;1263;-65
2021/03/12 13:44:40;;;;;;;;;;;20.80;51.60;;;;;;5052735;28;1963;-65
2021/03/12 13:47:06;;;;;;;;;;;20.80;51.50;;;;;;5053533;28;1335;-67
2021/03/12 13:49:31;;;;;;;;;;;20.80;51.40;;;;;;5053945;28;1381;-65
2021/03/12 13:51:56;;;;;;;;;;;20.90;51.40;;;;;;5053606;28;1284;-67
2021/03/12 13:54:22;;;;;;;;;;;20.90;51.30;;;;;;5053836;28;1076;-67
2021/03/12 13:56:48;;;;;;;;;;;21.00;51.30;;;;;;5053324;28;1309;-68
2021/03/12 13:59:14;;;;;;;;;;;21.00;51.20;;;;;;5051789;28;1793;-68
2021/03/12 14:01:39;;;;;;;;;;;21.00;51.20;;;;;;5051841;28;1968;-67
2021/03/12 14:04:04;;;;;;;;;;;21.00;51.10;;;;;;5050372;28;1906;-68
2021/03/12 14:06:30;;;;;;;;;;;21.00;51.10;;;;;;5052032;28;1532;-68
2021/03/12 14:08:55;;;;;;;;;;;21.10;51.10;;;;;;5046799;28;1241;-68
2021/03/12 14:11:21;;;;;;;;;;;21.10;51.10;;;;;;5042953;28;1344;-68
2021/03/12 14:13:46;;;;;;;;;;;21.10;51.00;;;;;;5053302;28;1344;-68
2021/03/12 14:16:12;;;;;;;;;;;21.10;51.00;;;;;;5068232;28;1158;-68
2021/03/12 14:18:37;;;;;;;;;;;21.10;51.00;;;;;;5053202;28;1318;-68
2021/03/12 14:21:03;;;;;;;;;;;21.10;51.00;;;;;;5045991;28;2229;-68
2021/03/12 14:23:28;;;;;;;;;;;21.10;51.00;;;;;;5049809;28;1910;-68
2021/03/12 14:25:55;;;;;;;;;;;21.10;51.00;;;;;;5048519;28;1348;-67
2021/03/12 14:28:20;;;;;;;;;;;21.10;51.00;;;;;;5049459;28;1139;-66